Time;durP1;ratioP1;P1;durP2;ratioP2;P2;SDS_P1;SDS_P2;PMS_P1;PMS_P2;Temp;Humidity;BMP_temperature;BMP_pressure;BME280_temperature;BME280_humidity;BME280_pressure;Samples;Min_cycle;Max_cycle;Signal;HPM_P1;HPM_P2
2021/06/28 00:01:21;;;;;;;;;;;;;;;-144.31;100.00;73922.16;5020013;28;19970;-68
2021/06/28 00:03:46;;;;;;;;;;;;;;;-144.31;100.00;73930.16;5015259;28;19929;-70
2021/06/28 00:06:12;;;;;;;;;;;;;;;-144.31;100.00;73922.16;5016109;28;20019;-70
2021/06/28 00:08:40;;;;;;;;;;;;;;;-144.31;100.00;73924.16;5012827;28;19917;-70
2021/06/28 00:11:09;;;;;;;;;;;;;;;-144.31;100.00;73914.19;5021132;28;19925;-70
2021/06/28 00:13:38;;;;;;;;;;;;;;;-144.31;100.00;73888.22;5012673;28;20308;-70
2021/06/28 00:16:04;;;;;;;;;;;;;;;-144.31;100.00;73896.22;5016289;28;20027;-69
2021/06/28 00:18:30;;;;;;;;;;;;;;;-144.31;100.00;73898.22;5015758;28;19916;-71
2021/06/28 00:20:56;;;;;;;;;;;;;;;-144.31;100.00;73896.22;5019627;28;20607;-70
2021/06/28 00:23:21;;;;;;;;;;;;;;;-144.31;100.00;73888.22;5014381;28;19921;-69
2021/06/28 00:25:47;;;;;;;;;;;;;;;-144.31;100.00;73874.25;5015176;28;19932;-71
2021/06/28 00:28:12;;;;;;;;;;;;;;;-144.31;100.00;73876.25;5021606;28;20035;-69
2021/06/28 00:30:41;;;;;;;;;;;;;;;-144.31;100.00;73872.25;5019692;28;20007;-68
2021/06/28 00:33:11;;;;;;;;;;;;;;;-144.31;100.00;73872.25;5024605;28;20386;-68
2021/06/28 00:35:37;;;;;;;;;;;;;;;-144.31;100.00;73862.28;5025425;28;20375;-67
2021/06/28 00:38:03;;;;;;;;;;;;;;;-144.31;100.00;73860.28;5022111;28;20015;-70
2021/06/28 00:40:28;;;;;;;;;;;;;;;-144.31;100.00;73840.31;5020616;28;20379;-68
2021/06/28 00:42:54;;;;;;;;;;;;;;;-144.31;100.00;73840.31;5019942;28;19928;-68
2021/06/28 00:45:19;;;;;;;;;;;;;;;-144.31;100.00;73834.31;5020588;28;20310;-68
2021/06/28 00:47:45;;;;;;;;;;;;;;;-144.31;100.00;73828.34;5017355;28;19921;-69
2021/06/28 00:50:12;;;;;;;;;;;;;;;-144.31;100.00;73828.34;5020389;28;20048;-73
2021/06/28 00:52:39;;;;;;;;;;;;;;;-144.31;100.00;73836.31;5021931;28;19975;-69
2021/06/28 00:55:05;;;;;;;;;;;;;;;-144.31;100.00;73832.31;5021401;28;19928;-69
2021/06/28 00:57:30;;;;;;;;;;;;;;;-144.31;100.00;73828.34;5018239;28;19972;-69
2021/06/28 00:59:55;;;;;;;;;;;;;;;-144.31;100.00;73822.34;5018594;28;19968;-70
2021/06/28 01:02:21;;;;;;;;;;;;;;;-144.31;100.00;73826.34;5020650;28;20330;-70
2021/06/28 01:04:46;;;;;;;;;;;;;;;-144.31;100.00;73824.34;5021464;28;19928;-68
2021/06/28 01:07:12;;;;;;;;;;;;;;;-144.31;100.00;73822.34;5018318;28;20382;-69
2021/06/28 01:09:38;;;;;;;;;;;;;;;-144.31;100.00;73826.34;5017984;28;20296;-70
2021/06/28 01:12:04;;;;;;;;;;;;;;;-144.31;100.00;73832.31;5004689;28;19925;-69
2021/06/28 01:14:30;;;;;;;;;;;;;;;-144.31;100.00;73832.31;5023251;28;19921;-68
2021/06/28 01:16:56;;;;;;;;;;;;;;;-144.31;100.00;73842.31;5026057;28;19921;-70
2021/06/28 01:19:22;;;;;;;;;;;;;;;-144.31;100.00;73844.31;5020346;28;20450;-72
2021/06/28 01:21:53;;;;;;;;;;;;;;;-144.31;100.00;73846.28;5020783;28;19925;-69
2021/06/28 01:24:18;;;;;;;;;;;;;;;-144.31;100.00;73844.31;5021102;28;19967;-67
2021/06/28 01:26:44;;;;;;;;;;;;;;;-144.31;100.00;73840.31;5019784;28;20019;-72
2021/06/28 01:29:09;;;;;;;;;;;;;;;-144.31;100.00;73832.31;5025130;28;19928;-69
2021/06/28 01:31:35;;;;;;;;;;;;;;;-144.31;100.00;73832.31;5018728;28;19918;-68
2021/06/28 01:34:00;;;;;;;;;;;;;;;-144.31;100.00;73834.31;5023014;28;19921;-69
2021/06/28 01:36:25;;;;;;;;;;;;;;;-144.31;100.00;73828.34;5018751;28;19926;-70
2021/06/28 01:38:51;;;;;;;;;;;;;;;-144.31;100.00;73830.31;5018683;28;20299;-68
2021/06/28 01:41:16;;;;;;;;;;;;;;;-144.31;100.00;73824.34;5020125;28;19917;-68
2021/06/28 01:43:42;;;;;;;;;;;;;;;-144.31;100.00;73826.34;5018945;28;19961;-69
2021/06/28 01:46:07;;;;;;;;;;;;;;;-144.31;100.00;73822.34;5020959;28;19968;-69
2021/06/28 01:48:33;;;;;;;;;;;;;;;-144.31;100.00;73822.34;5016921;28;20473;-68
2021/06/28 01:50:58;;;;;;;;;;;;;;;-144.31;100.00;73826.34;5020750;28;20386;-68
2021/06/28 01:53:24;;;;;;;;;;;;;;;-144.31;100.00;73814.34;5020924;28;19975;-70
2021/06/28 01:55:49;;;;;;;;;;;;;;;-144.31;100.00;73820.34;5020115;28;19921;-68
2021/06/28 01:58:16;;;;;;;;;;;;;;;-144.31;100.00;73824.34;5020683;28;19921;-68
2021/06/28 02:00:44;;;;;;;;;;;;;;;-144.31;100.00;73832.31;5020602;28;19921;-68
2021/06/28 02:03:14;;;;;;;;;;;;;;;-144.31;100.00;73830.31;5016394;28;20355;-72
2021/06/28 02:05:41;;;;;;;;;;;;;;;-144.31;100.00;73836.31;5019547;28;19925;-69
2021/06/28 02:08:07;;;;;;;;;;;;;;;-144.31;100.00;73838.31;5018679;28;20343;-71
2021/06/28 02:10:33;;;;;;;;;;;;;;;-144.31;100.00;73836.31;5016207;28;20429;-67
2021/06/28 02:12:59;;;;;;;;;;;;;;;-144.31;100.00;73814.34;5016235;28;19917;-68
2021/06/28 02:15:25;;;;;;;;;;;;;;;-144.31;100.00;73812.34;5021126;28;19980;-67
2021/06/28 02:17:51;;;;;;;;;;;;;;;-144.31;100.00;73828.34;5024709;28;19968;-68
2021/06/28 02:20:20;;;;;;;;;;;;;;;-144.31;100.00;73834.31;5025551;28;19929;-70
2021/06/28 02:22:46;;;;;;;;;;;;;;;-144.31;100.00;73846.28;5000874;28;19925;-68
2021/06/28 02:25:12;;;;;;;;;;;;;;;-144.31;100.00;73842.31;5017575;28;20493;-72
2021/06/28 02:27:38;;;;;;;;;;;;;;;-144.31;100.00;73838.31;5019261;28;19960;-70
2021/06/28 02:30:05;;;;;;;;;;;;;;;-144.31;100.00;73848.28;5018441;28;20449;-72
2021/06/28 02:32:30;;;;;;;;;;;;;;;-144.31;100.00;73844.31;5024279;28;19975;-70
2021/06/28 02:34:56;;;;;;;;;;;;;;;-144.31;100.00;73846.28;5018493;28;19932;-69
2021/06/28 02:37:21;;;;;;;;;;;;;;;-144.31;100.00;73836.31;5017973;28;19948;-70
2021/06/28 02:39:47;;;;;;;;;;;;;;;-144.31;100.00;73838.31;5015684;28;19936;-71
2021/06/28 02:42:12;;;;;;;;;;;;;;;-144.31;100.00;73836.31;5019668;28;19921;-72
2021/06/28 02:44:37;;;;;;;;;;;;;;;-144.31;100.00;73842.31;5026943;28;19990;-67
2021/06/28 02:47:03;;;;;;;;;;;;;;;-144.31;100.00;73826.34;5026689;28;20523;-66
2021/06/28 02:49:28;;;;;;;;;;;;;;;-144.31;100.00;73822.34;5018673;28;19917;-67
2021/06/28 02:51:54;;;;;;;;;;;;;;;-144.31;100.00;73824.34;5018403;28;19929;-67
2021/06/28 02:54:19;;;;;;;;;;;;;;;-144.31;100.00;73824.34;5025614;28;19996;-67
2021/06/28 02:56:44;;;;;;;;;;;;;;;-144.31;100.00;73828.34;5022410;28;19937;-72
2021/06/28 02:59:12;;;;;;;;;;;;;;;-144.31;100.00;73828.34;5024227;28;19927;-69
2021/06/28 03:01:37;;;;;;;;;;;;;;;-144.31;100.00;73826.34;5016932;28;20011;-70
2021/06/28 03:04:03;;;;;;;;;;;;;;;-144.31;100.00;73830.31;5018634;28;20040;-68
2021/06/28 03:06:28;;;;;;;;;;;;;;;-144.31;100.00;73830.31;5019087;28;19925;-69
2021/06/28 03:08:54;;;;;;;;;;;;;;;-144.31;100.00;73836.31;5019282;28;19972;-68
2021/06/28 03:11:20;;;;;;;;;;;;;;;-144.31;100.00;73830.31;5020653;28;19953;-68
2021/06/28 03:13:46;;;;;;;;;;;;;;;-144.31;100.00;73838.31;5022858;28;19921;-68
2021/06/28 03:16:12;;;;;;;;;;;;;;;-144.31;100.00;73856.28;5023522;28;19918;-67
2021/06/28 03:18:37;;;;;;;;;;;;;;;-144.31;100.00;73862.28;5017855;28;19928;-69
2021/06/28 03:21:04;;;;;;;;;;;;;;;-144.31;100.00;73870.25;5024646;28;19948;-69
2021/06/28 03:23:29;;;;;;;;;;;;;;;-144.31;100.00;73880.25;5023551;28;20004;-69
2021/06/28 03:25:55;;;;;;;;;;;;;;;-144.31;100.00;73876.25;5019113;28;20011;-69
2021/06/28 03:28:20;;;;;;;;;;;;;;;-144.31;100.00;73892.22;5017084;28;19921;-69
2021/06/28 03:30:46;;;;;;;;;;;;;;;-144.31;100.00;73896.22;5018993;28;19917;-69
2021/06/28 03:33:11;;;;;;;;;;;;;;;-144.31;100.00;73898.22;5022588;28;19984;-71
2021/06/28 03:35:37;;;;;;;;;;;;;;;-144.31;100.00;73896.22;5020421;28;19957;-69
2021/06/28 03:38:03;;;;;;;;;;;;;;;-144.31;100.00;73902.19;5012651;28;20375;-69
2021/06/28 03:40:32;;;;;;;;;;;;;;;-144.31;100.00;73916.19;5013081;28;19979;-71
2021/06/28 03:42:58;;;;;;;;;;;;;;;-144.31;100.00;73898.22;5025290;28;19968;-69
2021/06/28 03:45:24;;;;;;;;;;;;;;;-144.31;100.00;73900.19;5018922;28;19933;-68
2021/06/28 03:47:49;;;;;;;;;;;;;;;-144.31;100.00;73900.19;5023439;28;19921;-68
2021/06/28 03:50:15;;;;;;;;;;;;;;;-144.31;100.00;73908.19;5014327;28;20431;-70
2021/06/28 03:52:40;;;;;;;;;;;;;;;-144.31;100.00;73906.19;5018407;28;19998;-69
2021/06/28 03:55:06;;;;;;;;;;;;;;;-144.31;100.00;73900.19;5020731;28;19921;-70
2021/06/28 03:57:32;;;;;;;;;;;;;;;-144.31;100.00;73900.19;5019920;28;19925;-69
2021/06/28 03:59:59;;;;;;;;;;;;;;;-144.31;100.00;73898.22;5020466;28;19921;-69
2021/06/28 04:02:25;;;;;;;;;;;;;;;-144.31;100.00;73888.22;5021929;28;19967;-70
2021/06/28 04:04:50;;;;;;;;;;;;;;;-144.31;100.00;73880.25;5017095;28;19929;-68
2021/06/28 04:07:16;;;;;;;;;;;;;;;-144.31;100.00;73872.25;5013653;28;19929;-70
2021/06/28 04:09:41;;;;;;;;;;;;;;;-144.31;100.00;73862.28;5020425;28;19988;-70
2021/06/28 04:12:08;;;;;;;;;;;;;;;-144.31;100.00;73848.28;5016970;28;19925;-71
2021/06/28 04:14:33;;;;;;;;;;;;;;;-144.31;100.00;73844.31;5014578;28;20340;-69
2021/06/28 04:16:59;;;;;;;;;;;;;;;-144.31;100.00;73834.31;5015903;28;19953;-70
2021/06/28 04:19:24;;;;;;;;;;;;;;;-144.31;100.00;73820.34;5025164;28;20333;-69
2021/06/28 04:21:49;;;;;;;;;;;;;;;-144.31;100.00;73808.38;5017316;28;19923;-70
2021/06/28 04:24:15;;;;;;;;;;;;;;;-144.31;100.00;73792.41;5018010;28;19918;-66
2021/06/28 04:26:40;;;;;;;;;;;;;;;-144.31;100.00;73762.44;5018237;28;19931;-69
2021/06/28 04:29:05;;;;;;;;;;;;;;;-144.31;100.00;73758.44;5033117;28;20291;-70
2021/06/28 04:31:32;;;;;;;;;;;;;;;-144.31;100.00;73754.47;5018382;28;19935;-73
2021/06/28 04:33:57;;;;;;;;;;;;;;;-144.31;100.00;73750.47;5017089;28;19921;-68
2021/06/28 04:36:23;;;;;;;;;;;;;;;-144.31;100.00;73754.47;5019642;28;19923;-67
2021/06/28 04:38:48;;;;;;;;;;;;;;;-144.31;100.00;73752.47;5017359;28;20466;-69
2021/06/28 04:41:13;;;;;;;;;;;;;;;-144.31;100.00;73756.47;5013364;28;19944;-70
2021/06/28 04:43:39;;;;;;;;;;;;;;;-144.31;100.00;73756.47;5018180;28;19918;-68
2021/06/28 04:46:04;;;;;;;;;;;;;;;-144.31;100.00;73750.47;5019769;28;19925;-70
2021/06/28 04:48:29;;;;;;;;;;;;;;;-144.31;100.00;73736.50;5019139;28;20000;-71
2021/06/28 04:50:55;;;;;;;;;;;;;;;-144.31;100.00;73720.53;5018062;28;19999;-69
2021/06/28 04:53:20;;;;;;;;;;;;;;;-144.31;100.00;73706.56;5014997;28;19983;-69
2021/06/28 04:55:46;;;;;;;;;;;;;;;-144.31;100.00;73690.56;5014973;28;19917;-68
2021/06/28 04:58:11;;;;;;;;;;;;;;;-144.31;100.00;73670.63;5023126;28;20034;-73
2021/06/28 05:00:37;;;;;;;;;;;;;;;-144.31;100.00;73656.63;5031490;28;19921;-70
2021/06/28 05:03:03;;;;;;;;;;;;;;;-144.31;100.00;73652.66;5014426;28;19921;-69
2021/06/28 05:05:28;;;;;;;;;;;;;;;-144.31;100.00;73630.69;5023981;28;20649;-69
2021/06/28 05:07:55;;;;;;;;;;;;;;;-144.31;100.00;73614.72;5021948;28;19927;-69
2021/06/28 05:10:21;;;;;;;;;;;;;;;-144.31;100.00;73604.72;5019977;28;21263;-72
2021/06/28 05:12:46;;;;;;;;;;;;;;;-144.31;100.00;73608.72;5023128;28;19988;-71
2021/06/28 05:15:12;;;;;;;;;;;;;;;-144.31;100.00;73588.75;5017906;28;19921;-72
2021/06/28 05:17:38;;;;;;;;;;;;;;;-144.31;100.00;73594.75;5022276;28;19921;-69
2021/06/28 05:20:05;;;;;;;;;;;;;;;-144.31;100.00;73604.72;5021776;28;19960;-70
2021/06/28 05:22:31;;;;;;;;;;;;;;;-144.31;100.00;73600.75;5021430;28;19921;-68
2021/06/28 05:24:56;;;;;;;;;;;;;;;-144.31;100.00;73610.72;5021393;28;19918;-68
2021/06/28 05:27:22;;;;;;;;;;;;;;;-144.31;100.00;73624.69;5020373;28;19956;-69
2021/06/28 05:29:54;;;;;;;;;;;;;;;-144.31;100.00;73636.69;5005938;28;19925;-71
2021/06/28 05:32:20;;;;;;;;;;;;;;;-144.31;100.00;73640.66;5020521;28;19994;-70
2021/06/28 05:34:45;;;;;;;;;;;;;;;-144.31;100.00;73632.69;5021798;28;20272;-74
2021/06/28 05:37:10;;;;;;;;;;;;;;;-144.31;100.00;73616.72;5020300;28;19977;-72
2021/06/28 05:39:36;;;;;;;;;;;;;;;-144.31;100.00;73604.72;5026543;28;19958;-72
2021/06/28 05:42:01;;;;;;;;;;;;;;;-144.31;100.00;73562.81;5002190;28;19925;-78
2021/06/28 05:44:27;;;;;;;;;;;;;;;-144.31;100.00;73552.84;5020917;28;19975;-72
2021/06/28 05:46:52;;;;;;;;;;;;;;;-144.31;100.00;73478.97;5022982;28;19995;-73
2021/06/28 05:49:17;;;;;;;;;;;;;;;-144.31;100.00;73425.06;5025845;28;19943;-72
2021/06/28 05:51:43;;;;;;;;;;;;;;;-144.31;100.00;73377.16;5019389;28;19960;-75
2021/06/28 05:54:10;;;;;;;;;;;;;;;-144.31;100.00;73409.09;5020316;28;19928;-76
2021/06/28 05:56:36;;;;;;;;;;;;;;;-144.31;100.00;73405.09;5024650;28;19935;-75
2021/06/28 05:59:01;;;;;;;;;;;;;;;-144.31;100.00;73409.09;5014880;28;19922;-75
2021/06/28 06:01:26;;;;;;;;;;;;;;;-144.31;100.00;73373.16;5021104;28;20450;-75
2021/06/28 06:03:52;;;;;;;;;;;;;;;-144.31;100.00;73359.19;5021819;28;20425;-75
2021/06/28 06:06:17;;;;;;;;;;;;;;;-144.31;100.00;73341.22;5014450;28;20031;-76
2021/06/28 06:08:43;;;;;;;;;;;;;;;-144.31;100.00;73325.25;5019593;28;20238;-75
2021/06/28 06:11:08;;;;;;;;;;;;;;;-144.31;100.00;73357.19;5025398;28;20004;-77
2021/06/28 06:13:34;;;;;;;;;;;;;;;-144.31;100.00;73313.28;5019510;28;19925;-77
2021/06/28 06:15:59;;;;;;;;;;;;;;;-144.31;100.00;73259.38;5005939;28;19947;-76
2021/06/28 06:18:25;;;;;;;;;;;;;;;-144.31;100.00;73253.41;5014822;28;19917;-76
2021/06/28 06:20:50;;;;;;;;;;;;;;;-144.31;100.00;73223.44;5021123;28;19928;-75
2021/06/28 06:23:18;;;;;;;;;;;;;;;-144.31;100.00;73183.53;5025118;28;20379;-76
2021/06/28 06:25:46;;;;;;;;;;;;;;;-144.31;100.00;73185.53;5019921;28;19932;-76
2021/06/28 06:28:12;;;;;;;;;;;;;;;-144.31;100.00;73175.53;5024862;28;19932;-75
2021/06/28 06:30:38;;;;;;;;;;;;;;;-144.31;100.00;73151.59;5022086;28;19921;-76
2021/06/28 06:33:04;;;;;;;;;;;;;;;-144.31;100.00;73115.66;5023583;28;20440;-76
2021/06/28 06:35:29;;;;;;;;;;;;;;;-144.31;100.00;73103.69;5018444;28;20499;-75
2021/06/28 06:37:59;;;;;;;;;;;;;;;-144.31;100.00;73143.59;5021675;28;19920;-76
2021/06/28 06:40:25;;;;;;;;;;;;;;;-144.31;100.00;73137.63;5020157;28;19922;-76
2021/06/28 06:42:52;;;;;;;;;;;;;;;-144.31;100.00;73073.75;5016718;28;20004;-76
2021/06/28 06:45:18;;;;;;;;;;;;;;;-144.31;100.00;73031.81;5019793;28;20761;-75
2021/06/28 06:47:45;;;;;;;;;;;;;;;-144.31;100.00;73059.78;5022692;28;20402;-76
2021/06/28 06:50:12;;;;;;;;;;;;;;;-144.31;100.00;73005.88;5018481;28;20376;-74
2021/06/28 06:52:38;;;;;;;;;;;;;;;-144.31;100.00;72961.97;5018468;28;19931;-77
2021/06/28 06:55:07;;;;;;;;;;;;;;;-144.31;100.00;72961.97;5023210;28;19921;-73
2021/06/28 06:57:33;;;;;;;;;;;;;;;-144.31;100.00;72930.03;5017716;28;20746;-75
2021/06/28 06:59:59;;;;;;;;;;;;;;;-144.31;100.00;72918.06;5020174;28;19921;-76
2021/06/28 07:02:24;;;;;;;;;;;;;;;-144.31;100.00;72922.03;5014033;28;20011;-71
2021/06/28 07:04:49;;;;;;;;;;;;;;;-144.31;100.00;72938.00;5017446;28;19917;-72
2021/06/28 07:07:15;;;;;;;;;;;;;;;-144.31;100.00;72936.00;5019277;28;19925;-72
2021/06/28 07:09:40;;;;;;;;;;;;;;;-144.31;100.00;72914.06;5020033;28;19921;-72
2021/06/28 07:12:06;;;;;;;;;;;;;;;-144.31;100.00;72928.03;5021525;28;20437;-72
2021/06/28 07:14:35;;;;;;;;;;;;;;;-144.31;100.00;72890.09;5023696;28;20391;-71
2021/06/28 07:17:01;;;;;;;;;;;;;;;-144.31;100.00;72874.13;5017635;28;19925;-72
2021/06/28 07:19:26;;;;;;;;;;;;;;;-144.31;100.00;72830.22;5007557;28;19962;-73
2021/06/28 07:21:52;;;;;;;;;;;;;;;-144.31;100.00;72818.25;4980014;28;19947;-73
2021/06/28 07:24:17;;;;;;;;;;;;;;;-144.31;100.00;72860.16;4990349;28;20020;-73
2021/06/28 07:26:43;;;;;;;;;;;;;;;-144.31;100.00;72818.25;5007547;28;20012;-73
2021/06/28 07:29:09;;;;;;;;;;;;;;;-144.31;100.00;72778.34;5017321;28;19968;-73
2021/06/28 07:31:34;;;;;;;;;;;;;;;-144.31;100.00;72744.41;4996045;28;20434;-73
2021/06/28 07:34:00;;;;;;;;;;;;;;;-144.31;100.00;72766.34;4996122;28;20051;-73
2021/06/28 07:36:26;;;;;;;;;;;;;;;-144.31;100.00;72742.41;4991030;28;20447;-73
2021/06/28 07:38:51;;;;;;;;;;;;;;;-144.31;100.00;72778.34;4993491;28;20362;-73
2021/06/28 07:41:19;;;;;;;;;;;;;;;-144.31;100.00;72822.25;4997932;28;19925;-73
2021/06/28 07:43:44;;;;;;;;;;;;;;;-144.31;100.00;72800.28;5000235;28;19960;-73
2021/06/28 07:46:10;;;;;;;;;;;;;;;-144.31;100.00;72796.31;4995947;28;24527;-73
2021/06/28 07:48:35;;;;;;;;;;;;;;;-144.31;100.00;72758.38;4992592;28;20021;-74
2021/06/28 07:51:01;;;;;;;;;;;;;;;-144.31;100.00;72730.44;4997615;28;19948;-73
2021/06/28 07:53:26;;;;;;;;;;;;;;;-144.31;100.00;72698.50;4994106;28;20059;-73
2021/06/28 07:55:54;;;;;;;;;;;;;;;-144.31;100.00;72692.50;5023827;28;19949;-73
2021/06/28 07:58:19;;;;;;;;;;;;;;;-144.31;100.00;72678.53;5014929;28;19921;-72
2021/06/28 08:00:47;;;;;;;;;;;;;;;-144.31;100.00;72718.47;5002120;28;19925;-72
2021/06/28 08:03:13;;;;;;;;;;;;;;;-144.31;100.00;72634.63;4996738;28;19921;-73
2021/06/28 08:05:38;;;;;;;;;;;;;;;-144.31;100.00;72586.72;4996804;28;22010;-74
2021/06/28 08:08:05;;;;;;;;;;;;;;;-144.31;100.00;72548.81;4994404;28;19925;-73
2021/06/28 08:10:30;;;;;;;;;;;;;;;-144.31;100.00;72580.75;4995843;28;19929;-74
2021/06/28 08:12:56;;;;;;;;;;;;;;;-144.31;100.00;72570.75;4994711;28;21080;-73
2021/06/28 08:15:22;;;;;;;;;;;;;;;-144.31;100.00;72574.75;5015709;28;19965;-72
2021/06/28 08:17:50;;;;;;;;;;;;;;;-144.31;100.00;72742.41;5002895;28;19982;-73
2021/06/28 08:20:17;;;;;;;;;;;;;;;-144.31;100.00;72544.81;4997491;28;19920;-74
2021/06/28 08:22:43;;;;;;;;;;;;;;;-144.31;100.00;72486.94;4994880;28;19961;-73
2021/06/28 08:25:09;;;;;;;;;;;;;;;-144.31;100.00;72504.91;4994546;28;20396;-74
2021/06/28 08:27:34;;;;;;;;;;;;;;;-144.31;100.00;72526.84;4993451;28;20367;-75
2021/06/28 08:30:04;;;;;;;;;;;;;;;-144.31;100.00;72620.66;4992917;28;22085;-72
2021/06/28 08:32:29;;;;;;;;;;;;;;;-144.31;100.00;72524.84;4994258;28;19925;-73
2021/06/28 08:34:55;;;;;;;;;;;;;;;-144.31;100.00;72411.09;4996138;28;21415;-73
2021/06/28 08:37:23;;;;;;;;;;;;;;;-144.31;100.00;72474.97;4990153;28;20059;-72
2021/06/28 08:39:49;;;;;;;;;;;;;;;-144.31;100.00;72530.84;5000224;28;19925;-72
2021/06/28 08:42:18;;;;;;;;;;;;;;;-144.31;100.00;72492.94;4995358;28;19956;-72
2021/06/28 08:44:44;;;;;;;;;;;;;;;-144.31;100.00;72508.91;4993913;28;19921;-71
2021/06/28 08:47:10;;;;;;;;;;;;;;;-144.31;100.00;72570.75;4989179;28;19966;-72
2021/06/28 08:49:37;;;;;;;;;;;;;;;-144.31;100.00;72484.94;4997892;28;19921;-73
2021/06/28 08:52:03;;;;;;;;;;;;;;;-144.31;100.00;72470.97;4997210;28;19925;-72
2021/06/28 08:54:28;;;;;;;;;;;;;;;-144.31;100.00;72445.03;4996390;28;20027;-72
2021/06/28 08:56:54;;;;;;;;;;;;;;;-144.31;100.00;72339.25;5004500;28;19920;-72
2021/06/28 08:59:19;;;;;;;;;;;;;;;-144.31;100.00;72383.16;5013369;28;19925;-73
2021/06/28 09:01:45;;;;;;;;;;;;;;;-144.31;100.00;72457.00;5006318;28;19925;-73
2021/06/28 09:04:10;;;;;;;;;;;;;;;-144.31;100.00;72447.03;4997207;28;19924;-73
2021/06/28 09:06:37;;;;;;;;;;;;;;;-144.31;100.00;72494.94;4997105;28;20290;-74
2021/06/28 09:09:07;;;;;;;;;;;;;;;-144.31;100.00;72311.31;5002466;28;19925;-74
2021/06/28 09:11:41;;;;;;;;;;;;;;;-144.31;100.00;72319.31;5022990;28;19925;-74
2021/06/28 09:14:07;;;;;;;;;;;;;;;-144.31;100.00;72317.31;4986168;28;20063;-75
2021/06/28 09:16:33;;;;;;;;;;;;;;;-144.31;100.00;72301.34;4992365;28;19921;-73
2021/06/28 09:19:01;;;;;;;;;;;;;;;-144.31;100.00;72369.19;4996082;28;19925;-73
2021/06/28 09:21:28;;;;;;;;;;;;;;;-144.31;100.00;72411.09;5003898;28;20383;-73
2021/06/28 09:23:57;;;;;;;;;;;;;;;-144.31;100.00;72333.28;4999739;28;19924;-72
2021/06/28 09:26:27;;;;;;;;;;;;;;;-144.31;100.00;72303.34;4998515;28;19929;-75
2021/06/28 09:28:54;;;;;;;;;;;;;;;-144.31;100.00;72315.31;5005100;28;19928;-73
2021/06/28 09:31:37;;;;;;;;;;;;;;;-144.31;100.00;72291.34;5018156;28;19965;-73
2021/06/28 09:34:07;;;;;;;;;;;;;;;-144.31;100.00;72339.25;5015843;28;19917;-73
2021/06/28 09:36:41;;;;;;;;;;;;;;;-144.31;100.00;72335.25;5018204;28;19921;-72
2021/06/28 09:39:20;;;;;;;;;;;;;;;-144.31;100.00;72271.41;5002572;28;20501;-72
2021/06/28 09:41:45;;;;;;;;;;;;;;;-144.31;100.00;72235.47;4985899;28;20024;-72
2021/06/28 09:44:10;;;;;;;;;;;;;;;-144.31;100.00;72115.75;5000203;28;19999;-73
2021/06/28 09:46:37;;;;;;;;;;;;;;;-144.31;100.00;72233.47;4998849;28;19967;-75
2021/06/28 09:49:03;;;;;;;;;;;;;;;-144.31;100.00;72183.59;5009049;28;19921;-74
2021/06/28 09:51:30;;;;;;;;;;;;;;;-144.31;100.00;72159.66;5001541;28;19925;-74
2021/06/28 09:54:08;;;;;;;;;;;;;;;-144.31;100.00;72079.81;4994797;28;19967;-73
2021/06/28 09:56:35;;;;;;;;;;;;;;;-144.31;100.00;72049.88;5006173;28;19929;-73
2021/06/28 09:59:20;;;;;;;;;;;;;;;-144.31;100.00;72039.91;4995872;28;19925;-73
2021/06/28 10:01:47;;;;;;;;;;;;;;;-144.31;100.00;72055.88;4992317;28;21350;-74
2021/06/28 10:04:36;;;;;;;;;;;;;;;-144.31;100.00;72083.81;4996050;28;19917;-75
2021/06/28 10:07:15;;;;;;;;;;;;;;;-144.31;100.00;72139.69;4997719;28;20064;-76
2021/06/28 10:09:40;;;;;;;;;;;;;;;-144.31;100.00;72002.00;4998248;28;20655;-73
2021/06/28 10:12:16;;;;;;;;;;;;;;;-144.31;100.00;72083.81;4997331;28;20584;-74
2021/06/28 10:14:42;;;;;;;;;;;;;;;-144.31;100.00;72197.56;4998757;28;19921;-75
2021/06/28 10:17:07;;;;;;;;;;;;;;;-144.31;100.00;72091.78;4993926;28;19921;-73
2021/06/28 10:19:35;;;;;;;;;;;;;;;-144.31;100.00;72067.84;4993936;28;19964;-71
2021/06/28 10:22:00;;;;;;;;;;;;;;;-144.31;100.00;71964.09;4989732;28;19921;-74
2021/06/28 10:24:28;;;;;;;;;;;;;;;-144.31;98.87;71952.09;5025857;28;20426;-75
2021/06/28 10:26:54;;;;;;;;;;;;;;;-144.31;100.00;71960.09;4990581;28;19929;-75
2021/06/28 10:29:19;;;;;;;;;;;;;;;-144.31;100.00;71998.00;4992763;28;19921;-73
2021/06/28 10:31:47;;;;;;;;;;;;;;;-144.31;100.00;71910.19;4996934;28;19925;-73
2021/06/28 10:34:13;;;;;;;;;;;;;;;-144.31;95.88;72021.94;4978415;28;19925;-72
2021/06/28 10:36:39;;;;;;;;;;;;;;;-144.31;99.35;72063.84;4997783;28;19932;-73
2021/06/28 10:39:06;;;;;;;;;;;;;;;-144.31;100.00;72077.81;4996305;28;19929;-74
2021/06/28 10:41:34;;;;;;;;;;;;;;;-144.31;100.00;72153.66;5016459;28;19918;-73
2021/06/28 10:44:00;;;;;;;;;;;;;;;-144.31;100.00;72135.69;5021454;28;20054;-73
2021/06/28 10:46:30;;;;;;;;;;;;;;;-144.31;100.00;72033.94;5022433;28;20221;-74
2021/06/28 10:48:57;;;;;;;;;;;;;;;-144.31;100.00;72129.72;5019057;28;19921;-72
2021/06/28 10:51:36;;;;;;;;;;;;;;;-144.31;96.41;72047.91;5017717;28;19921;-74
2021/06/28 10:54:02;;;;;;;;;;;;;;;-144.31;100.00;72107.75;5021516;28;20028;-74
2021/06/28 10:56:31;;;;;;;;;;;;;;;-144.31;90.88;71940.13;5024770;28;19917;-74
2021/06/28 10:59:06;;;;;;;;;;;;;;;-144.31;99.69;72109.75;5023410;28;20449;-74
2021/06/28 11:01:39;;;;;;;;;;;;;;;-144.31;98.20;72043.91;5041517;28;20003;-72
2021/06/28 11:04:08;;;;;;;;;;;;;;;-144.31;95.97;71966.06;5034935;28;19924;-72
2021/06/28 11:06:37;;;;;;;;;;;;;;;-144.31;95.04;71932.16;5018642;28;19929;-73
2021/06/28 11:09:08;;;;;;;;;;;;;;;-144.31;93.26;71990.03;5016345;28;19921;-73
2021/06/28 11:11:42;;;;;;;;;;;;;;;-144.31;100.00;71922.19;5016367;28;19918;-73
2021/06/28 11:14:08;;;;;;;;;;;;;;;-144.31;89.92;71852.34;5048767;28;19922;-73
2021/06/28 11:16:33;;;;;;;;;;;;;;;-144.31;92.30;71884.25;5019433;28;20319;-71
2021/06/28 11:19:21;;;;;;;;;;;;;;;-144.31;84.96;71760.53;5019277;28;20007;-73
2021/06/28 11:21:49;;;;;;;;;;;;;;;-144.31;96.03;71894.25;5019633;28;19923;-72
2021/06/28 11:24:30;;;;;;;;;;;;;;;-144.31;86.24;71752.56;5048374;28;19968;-72
2021/06/28 11:27:15;;;;;;;;;;;;;;;-144.31;80.36;71694.69;5021685;28;19925;-70
2021/06/28 11:29:51;;;;;;;;;;;;;;;-144.31;77.80;71604.91;5020897;28;19917;-71
2021/06/28 11:32:23;;;;;;;;;;;;;;;-144.31;72.71;71433.31;5021457;28;19921;-70
2021/06/28 11:34:49;;;;;;;;;;;;;;;-144.31;78.85;71519.09;5019145;28;19974;-74
2021/06/28 11:37:14;;;;;;;;;;;;;;;-144.31;72.75;71379.44;5023660;28;19928;-76
2021/06/28 11:39:59;;;;;;;;;;;;;;;-144.31;75.96;71425.31;5009483;28;19930;-73
2021/06/28 11:42:37;;;;;;;;;;;;;;;-144.31;78.48;71493.16;5014559;28;20178;-74
2021/06/28 11:45:11;;;;;;;;;;;;;;;-144.31;78.62;71545.03;5032601;28;19917;-71
2021/06/28 11:47:45;;;;;;;;;;;;;;;-144.31;85.29;71559.00;5021780;28;19922;-77
2021/06/28 11:50:30;;;;;;;;;;;;;;;-144.31;82.16;71393.41;5051863;28;19921;-77
2021/06/28 11:53:06;;;;;;;;;;;;;;;-144.31;71.40;71265.72;5023095;28;20482;-76
2021/06/28 11:55:33;;;;;;;;;;;;;;;-144.31;74.80;71269.69;5050933;28;19921;-77
2021/06/28 11:57:59;;;;;;;;;;;;;;;-144.31;81.83;71423.34;5018594;28;19921;-76
2021/06/28 12:00:25;;;;;;;;;;;;;;;-144.31;67.99;71225.81;5019723;28;19917;-76
2021/06/28 12:03:09;;;;;;;;;;;;;;;-144.31;76.28;71471.22;5016445;28;19917;-75
2021/06/28 12:05:35;;;;;;;;;;;;;;;-144.31;67.44;71155.97;5017800;28;19967;-75
2021/06/28 12:08:03;;;;;;;;;;;;;;;-144.31;64.56;71054.22;5015960;28;19945;-76
2021/06/28 12:10:31;;;;;;;;;;;;;;;-144.31;67.97;71169.94;5017668;28;19943;-76
2021/06/28 12:12:57;;;;;;;;;;;;;;;-144.31;61.86;70974.44;5019613;28;19921;-75
2021/06/28 12:15:26;;;;;;;;;;;;;;;-144.31;64.45;71124.06;5029593;28;19929;-75
2021/06/28 12:17:51;;;;;;;;;;;;;;;-144.31;76.87;71433.31;5020104;28;19925;-76